Uniontown, Arkansas
Current Conditions -  °F | °C
As of 12:53 PM on Friday 24 Oct 2014 (Local Time) from KFSM Reporting Station
Clear Clear  
Wind Chill: 71°   Ceiling: Unl
Heat Index: 71°   Visibility: 10mi
Dew Point: 55°   Wind: 0mph
Humidity: 57%   Direction: NA
Pressure: 30.13"   Gusts: NA
Location:  35.58°N, 94.44°W
Report Text: KFSM 241753Z 00000KT 10SM CLR 22/13 A3013 RMK AO2 SLP201 T02170128 10222 20111 58010
Loading
Personal Weather Stations






























Interactive Weather Map
Tropical Storm Tracking
New forecast layout! Learn more

10-Day Weather Forecast

Advertisements
Track Severe Weather on mobile